Decoded Metar for LFQA (REIMS in FRANCE) (IATA:N/A) | Meteo·Mobile Aviation Weather
aviador You're here:

LFQA Decoded Metar

REIMS in FRANCE
Report Time2019-02-17 07:00:00
UTC Time2019-02-17 07:25:29
Flight Rules vfr VFR
Wind100° at 09 kt
W.Decomp.*RWY 07: 7.8 kt HW 4.5 kt RCW
W.Rank100° ranks 5
Current wind is above 100° avg. (5.2)
Visibility9000 m
Phenomena:N/A
Clouds:N/A
Expected CloudBase > 400 ft AGL from Temp-Dew spread
CeilingNone
Temp01°C (ISA -13)
Dew Point00°C (93% RH)
AAT-4.2°C
QNH1022 hPa
Density Alt-1,542 ft
Elevation312 ft
Report Wrong Elevation
Raw Report
METAR LFQA 170700Z AUTO 10009KT 9000 NSC 01/M00 Q1022=

Extra information for LFQA:More info

Metar Taf Metar & Taf Last 4 Metars F.Rules Stats Wind Profile Meteogram Temp Stats Airport Information Weather charts Add Link Nearby VenuesMetar ALERT Operation Metar Decoded Social comments